sensor_id;sensor_type;location;lat;lon;timestamp;P1;durP1;ratioP1;P2;durP2;ratioP2
50689;SDS011;54375;48.298;11.238;2022-12-07T00:00:12;19.00;;;11.70;;
50689;SDS011;54375;48.298;11.238;2022-12-07T00:20:16;22.33;;;12.23;;
50689;SDS011;54375;48.298;11.238;2022-12-07T00:40:19;18.25;;;11.18;;
50689;SDS011;54375;48.298;11.238;2022-12-07T01:00:21;17.17;;;10.85;;
50689;SDS011;54375;48.298;11.238;2022-12-07T01:20:26;19.53;;;11.43;;
50689;SDS011;54375;48.298;11.238;2022-12-07T01:40:29;22.60;;;13.55;;
50689;SDS011;54375;48.298;11.238;2022-12-07T02:00:32;23.40;;;13.48;;
50689;SDS011;54375;48.298;11.238;2022-12-07T02:20:36;18.17;;;10.93;;
50689;SDS011;54375;48.298;11.238;2022-12-07T02:40:46;17.35;;;10.40;;
50689;SDS011;54375;48.298;11.238;2022-12-07T03:00:58;17.30;;;10.88;;
50689;SDS011;54375;48.298;11.238;2022-12-07T03:21:07;17.13;;;10.45;;
50689;SDS011;54375;48.298;11.238;2022-12-07T03:41:14;18.63;;;11.07;;
50689;SDS011;54375;48.298;11.238;2022-12-07T04:01:19;19.58;;;11.43;;
50689;SDS011;54375;48.298;11.238;2022-12-07T04:21:24;20.92;;;11.60;;
50689;SDS011;54375;48.298;11.238;2022-12-07T04:41:26;19.33;;;12.55;;
50689;SDS011;54375;48.298;11.238;2022-12-07T05:01:29;23.75;;;13.18;;
50689;SDS011;54375;48.298;11.238;2022-12-07T05:21:32;25.23;;;14.20;;
50689;SDS011;54375;48.298;11.238;2022-12-07T05:41:34;21.10;;;12.80;;
50689;SDS011;54375;48.298;11.238;2022-12-07T06:01:37;26.27;;;13.82;;
50689;SDS011;54375;48.298;11.238;2022-12-07T06:21:39;24.38;;;14.93;;
50689;SDS011;54375;48.298;11.238;2022-12-07T06:41:42;25.90;;;16.08;;
50689;SDS011;54375;48.298;11.238;2022-12-07T07:01:44;26.55;;;15.20;;
50689;SDS011;54375;48.298;11.238;2022-12-07T07:21:47;32.22;;;17.92;;
50689;SDS011;54375;48.298;11.238;2022-12-07T07:41:49;29.20;;;16.60;;
50689;SDS011;54375;48.298;11.238;2022-12-07T08:01:51;28.92;;;16.20;;
50689;SDS011;54375;48.298;11.238;2022-12-07T08:21:53;30.60;;;18.48;;
50689;SDS011;54375;48.298;11.238;2022-12-07T08:41:56;30.27;;;17.98;;
50689;SDS011;54375;48.298;11.238;2022-12-07T09:01:59;30.45;;;17.52;;
50689;SDS011;54375;48.298;11.238;2022-12-07T09:22:01;26.98;;;16.55;;
50689;SDS011;54375;48.298;11.238;2022-12-07T09:42:04;27.90;;;16.10;;
50689;SDS011;54375;48.298;11.238;2022-12-07T10:02:21;25.23;;;16.20;;
50689;SDS011;54375;48.298;11.238;2022-12-07T10:22:28;24.55;;;14.05;;
50689;SDS011;54375;48.298;11.238;2022-12-07T10:42:30;23.27;;;13.77;;
50689;SDS011;54375;48.298;11.238;2022-12-07T11:02:37;25.58;;;14.13;;
50689;SDS011;54375;48.298;11.238;2022-12-07T11:23:11;21.08;;;13.05;;
50689;SDS011;54375;48.298;11.238;2022-12-07T11:43:21;19.65;;;12.07;;
50689;SDS011;54375;48.298;11.238;2022-12-07T12:03:28;21.42;;;12.90;;
50689;SDS011;54375;48.298;11.238;2022-12-07T12:23:36;15.98;;;9.98;;
50689;SDS011;54375;48.298;11.238;2022-12-07T12:43:45;16.58;;;9.45;;
50689;SDS011;54375;48.298;11.238;2022-12-07T13:03:53;18.70;;;9.57;;
50689;SDS011;54375;48.298;11.238;2022-12-07T13:23:57;26.55;;;11.18;;
50689;SDS011;54375;48.298;11.238;2022-12-07T13:44:03;20.77;;;11.15;;
50689;SDS011;54375;48.298;11.238;2022-12-07T14:04:24;17.02;;;9.88;;
50689;SDS011;54375;48.298;11.238;2022-12-07T14:24:33;27.05;;;13.55;;
50689;SDS011;54375;48.298;11.238;2022-12-07T14:44:43;21.17;;;10.82;;
50689;SDS011;54375;48.298;11.238;2022-12-07T15:04:46;19.05;;;9.88;;
50689;SDS011;54375;48.298;11.238;2022-12-07T15:24:48;16.73;;;9.02;;
50689;SDS011;54375;48.298;11.238;2022-12-07T15:44:50;18.48;;;8.50;;
50689;SDS011;54375;48.298;11.238;2022-12-07T16:04:52;19.77;;;9.98;;
50689;SDS011;54375;48.298;11.238;2022-12-07T16:24:55;27.00;;;15.75;;
50689;SDS011;54375;48.298;11.238;2022-12-07T16:44:57;17.65;;;8.88;;
50689;SDS011;54375;48.298;11.238;2022-12-07T17:04:59;22.17;;;11.55;;
50689;SDS011;54375;48.298;11.238;2022-12-07T17:25:02;19.67;;;11.63;;
50689;SDS011;54375;48.298;11.238;2022-12-07T17:45:06;14.98;;;8.85;;
50689;SDS011;54375;48.298;11.238;2022-12-07T18:05:11;15.63;;;8.55;;
50689;SDS011;54375;48.298;11.238;2022-12-07T18:25:14;24.30;;;12.70;;
50689;SDS011;54375;48.298;11.238;2022-12-07T18:45:16;18.88;;;10.70;;
50689;SDS011;54375;48.298;11.238;2022-12-07T19:05:19;17.55;;;7.88;;
50689;SDS011;54375;48.298;11.238;2022-12-07T19:25:22;13.88;;;7.47;;
50689;SDS011;54375;48.298;11.238;2022-12-07T19:45:24;15.48;;;7.95;;
50689;SDS011;54375;48.298;11.238;2022-12-07T20:05:26;23.67;;;10.98;;
50689;SDS011;54375;48.298;11.238;2022-12-07T20:25:29;37.72;;;19.17;;
50689;SDS011;54375;48.298;11.238;2022-12-07T20:45:33;25.98;;;13.52;;
50689;SDS011;54375;48.298;11.238;2022-12-07T21:05:35;37.08;;;18.52;;
50689;SDS011;54375;48.298;11.238;2022-12-07T21:25:37;30.10;;;16.52;;
50689;SDS011;54375;48.298;11.238;2022-12-07T21:45:40;31.63;;;17.90;;
50689;SDS011;54375;48.298;11.238;2022-12-07T22:05:43;29.67;;;16.58;;
50689;SDS011;54375;48.298;11.238;2022-12-07T22:25:45;29.70;;;17.00;;
50689;SDS011;54375;48.298;11.238;2022-12-07T22:45:54;25.50;;;15.18;;
50689;SDS011;54375;48.298;11.238;2022-12-07T23:05:56;31.30;;;16.48;;
50689;SDS011;54375;48.298;11.238;2022-12-07T23:26:01;32.97;;;16.77;;
50689;SDS011;54375;48.298;11.238;2022-12-07T23:46:07;29.00;;;15.10;;
